createdAt,value
2019-04-20T00:00:19.091Z,0.00
2019-04-20T00:01:23.481Z,0.00
2019-04-20T00:02:20.630Z,0.00
2019-04-20T00:03:18.084Z,0.00
2019-04-20T00:04:23.401Z,0.00
2019-04-20T00:05:18.877Z,0.00
2019-04-20T00:06:17.627Z,0.00
2019-04-20T00:07:18.735Z,0.00
2019-04-20T00:08:23.127Z,0.00
2019-04-20T00:09:21.407Z,0.00
2019-04-20T00:10:20.020Z,0.00
2019-04-20T00:11:25.466Z,0.00
2019-04-20T00:12:22.866Z,0.00
2019-04-20T00:13:29.051Z,0.00
2019-04-20T00:14:22.383Z,0.00
2019-04-20T00:15:17.551Z,0.00
2019-04-20T00:16:16.864Z,0.00
2019-04-20T00:17:17.784Z,0.00
2019-04-20T00:18:17.012Z,0.00
2019-04-20T00:19:22.575Z,0.00
2019-04-20T00:20:23.538Z,0.00
2019-04-20T00:21:17.490Z,0.00
2019-04-20T00:22:17.226Z,0.00
2019-04-20T00:23:24.956Z,0.00
2019-04-20T00:24:22.869Z,0.00
2019-04-20T00:25:20.062Z,0.00
2019-04-20T00:26:24.913Z,0.00
2019-04-20T00:27:38.633Z,0.00
2019-04-20T00:28:33.771Z,0.00
2019-04-20T00:29:35.448Z,0.00
2019-04-20T00:30:34.030Z,0.00
2019-04-20T00:31:30.658Z,0.00
2019-04-20T00:32:29.572Z,0.00
2019-04-20T00:33:27.290Z,0.00
2019-04-20T00:34:24.161Z,0.00
2019-04-20T00:35:14.804Z,0.00
2019-04-20T00:36:15.982Z,0.00
2019-04-20T00:37:15.053Z,0.00
2019-04-20T00:38:14.358Z,0.00
2019-04-20T00:39:16.529Z,0.00
2019-04-20T00:40:15.053Z,0.00
2019-04-20T00:41:17.107Z,0.00
2019-04-20T00:42:16.191Z,0.00
2019-04-20T00:43:22.122Z,0.00
2019-04-20T00:44:22.033Z,0.00
2019-04-20T00:45:20.441Z,0.00
2019-04-20T00:46:21.862Z,0.00
2019-04-20T00:47:27.199Z,0.00
2019-04-20T00:48:22.700Z,0.00
2019-04-20T00:49:27.101Z,0.00
2019-04-20T00:50:28.441Z,0.00
2019-04-20T00:51:30.598Z,0.00
2019-04-20T00:52:29.090Z,0.00
2019-04-20T00:53:23.876Z,0.00
2019-04-20T00:54:13.581Z,0.00
2019-04-20T00:55:12.825Z,0.00
2019-04-20T00:56:12.515Z,0.00
2019-04-20T00:57:22.274Z,0.00
2019-04-20T00:58:20.053Z,0.00
2019-04-20T00:59:25.493Z,0.00
2019-04-20T01:00:31.597Z,0.00
2019-04-20T01:01:32.205Z,0.00
2019-04-20T01:02:25.681Z,0.00
2019-04-20T01:03:32.419Z,0.00
2019-04-20T01:04:32.821Z,0.00
2019-04-20T01:05:23.232Z,0.00
2019-04-20T01:06:26.921Z,0.00
2019-04-20T01:07:20.770Z,0.00
2019-04-20T01:08:11.386Z,0.00
2019-04-20T01:09:11.924Z,0.00
2019-04-20T01:10:11.134Z,0.00
2019-04-20T01:11:12.241Z,0.00
2019-04-20T01:12:17.310Z,0.00
2019-04-20T01:13:13.748Z,0.00
2019-04-20T01:14:13.783Z,0.00
2019-04-20T01:15:16.791Z,0.00
2019-04-20T01:16:21.760Z,0.00
2019-04-20T01:17:12.088Z,0.00
2019-04-20T01:18:10.669Z,0.00
2019-04-20T01:19:10.154Z,0.00
2019-04-20T01:20:10.066Z,0.00
2019-04-20T01:21:14.868Z,0.00
2019-04-20T01:22:13.595Z,0.00
2019-04-20T01:23:14.025Z,0.00
2019-04-20T01:24:14.725Z,0.00
2019-04-20T01:25:17.321Z,0.00
2019-04-20T01:26:13.030Z,0.00
2019-04-20T01:27:23.698Z,0.00
2019-04-20T01:28:27.803Z,0.00
2019-04-20T01:29:20.536Z,0.00
2019-04-20T01:30:19.017Z,0.00
2019-04-20T01:31:18.762Z,0.00
2019-04-20T01:32:20.974Z,0.00
2019-04-20T01:33:24.414Z,0.00
2019-04-20T01:34:26.561Z,0.00
2019-04-20T01:35:24.868Z,0.00
2019-04-20T01:36:25.511Z,0.00
2019-04-20T01:37:23.133Z,0.00
2019-04-20T01:38:26.844Z,0.00
2019-04-20T01:39:19.744Z,0.00
2019-04-20T01:40:09.613Z,0.00
2019-04-20T01:41:07.900Z,0.00
2019-04-20T01:42:08.646Z,0.00
2019-04-20T01:43:07.992Z,0.00
2019-04-20T01:44:07.592Z,0.00
2019-04-20T01:45:14.551Z,0.00
2019-04-20T01:46:13.350Z,0.00
2019-04-20T01:47:08.822Z,0.00
2019-04-20T01:48:08.185Z,0.00
2019-04-20T01:49:11.495Z,0.00
2019-04-20T01:50:14.203Z,0.00
2019-04-20T01:51:16.678Z,0.00
2019-04-20T01:52:16.060Z,0.00
2019-04-20T01:53:16.688Z,0.00
2019-04-20T01:54:21.342Z,0.00
2019-04-20T01:55:26.091Z,0.00
2019-04-20T01:56:24.462Z,0.00
2019-04-20T01:57:13.836Z,0.00
2019-04-20T01:58:27.400Z,0.00
2019-04-20T01:59:21.173Z,0.00
2019-04-20T02:00:13.240Z,0.00
2019-04-20T02:01:13.705Z,0.00
2019-04-20T02:02:11.668Z,0.00
2019-04-20T02:03:06.965Z,0.00
2019-04-20T02:04:07.295Z,0.00
2019-04-20T02:05:13.856Z,0.00
2019-04-20T02:06:09.945Z,0.00
2019-04-20T02:07:06.783Z,0.00
2019-04-20T02:08:08.256Z,0.00
2019-04-20T02:09:11.910Z,0.00
2019-04-20T02:10:07.997Z,0.00
2019-04-20T02:11:07.557Z,0.00
2019-04-20T02:12:10.486Z,0.00
2019-04-20T02:13:06.579Z,0.00
2019-04-20T02:14:07.383Z,0.00
2019-04-20T02:15:07.501Z,0.00
2019-04-20T02:16:11.536Z,0.00
2019-04-20T02:17:14.817Z,0.00
2019-04-20T02:18:17.663Z,0.00
2019-04-20T02:19:18.656Z,0.00
2019-04-20T02:20:23.173Z,0.00
2019-04-20T02:21:19.928Z,0.00
2019-04-20T02:22:17.197Z,0.00
2019-04-20T02:23:19.996Z,0.00
2019-04-20T02:24:06.382Z,0.00
2019-04-20T02:25:03.831Z,0.00
2019-04-20T02:26:03.266Z,0.00
2019-04-20T02:27:04.146Z,0.00
2019-04-20T02:28:22.309Z,0.00
2019-04-20T02:29:23.627Z,0.00
2019-04-20T02:30:30.087Z,0.00
2019-04-20T02:31:47.457Z,0.00
2019-04-20T02:32:29.297Z,0.00
2019-04-20T02:33:48.888Z,0.00
2019-04-20T02:34:39.754Z,0.00
2019-04-20T02:35:34.411Z,0.00
2019-04-20T02:36:41.637Z,0.00
2019-04-20T02:37:55.129Z,0.00
2019-04-20T02:38:54.589Z,0.00
2019-04-20T02:40:54.487Z,0.00
2019-04-20T02:42:44.603Z,0.00
2019-04-20T02:43:58.117Z,0.00
2019-04-20T02:46:31.739Z,0.00
2019-04-20T02:47:40.481Z,0.00
2019-04-20T02:48:35.677Z,0.00
2019-04-20T02:49:35.462Z,0.00
2019-04-20T02:51:33.462Z,0.00
2019-04-20T02:52:44.191Z,0.00
2019-04-20T02:54:26.618Z,0.00
2019-04-20T02:55:38.131Z,0.00
2019-04-20T02:58:32.760Z,0.00
2019-04-20T02:59:55.779Z,0.00
2019-04-20T03:00:28.783Z,0.00
2019-04-20T03:01:20.716Z,0.00
2019-04-20T03:02:19.501Z,0.00
2019-04-20T03:03:12.427Z,0.00
2019-04-20T03:04:03.331Z,0.00
2019-04-20T03:05:15.233Z,0.00
2019-04-20T03:06:16.680Z,0.00
2019-04-20T03:07:15.191Z,0.00
2019-04-20T03:08:13.608Z,0.00
2019-04-20T03:09:22.544Z,0.00
2019-04-20T03:10:17.979Z,0.00
2019-04-20T03:11:27.266Z,0.00
2019-04-20T03:12:23.600Z,0.00
2019-04-20T03:13:18.575Z,0.00
2019-04-20T03:14:17.679Z,0.00
2019-04-20T03:15:20.887Z,0.00
2019-04-20T03:16:16.511Z,0.00
2019-04-20T03:17:26.029Z,0.00
2019-04-20T03:18:21.296Z,0.00
2019-04-20T03:19:14.553Z,0.00
2019-04-20T03:20:19.993Z,0.00
2019-04-20T03:21:22.080Z,0.00
2019-04-20T03:22:23.614Z,0.00
2019-04-20T03:24:26.584Z,0.00
2019-04-20T03:25:18.200Z,0.00
2019-04-20T03:26:19.133Z,0.00
2019-04-20T03:27:14.843Z,0.00
2019-04-20T03:28:18.445Z,0.00
2019-04-20T03:29:11.646Z,0.00
2019-04-20T03:31:00.605Z,0.00
2019-04-20T03:32:50.228Z,0.00
2019-04-20T03:33:30.948Z,0.00
2019-04-20T03:35:20.597Z,0.00
2019-04-20T03:36:25.960Z,0.00
2019-04-20T03:37:25.082Z,0.00
2019-04-20T03:38:14.743Z,0.00
2019-04-20T03:39:13.859Z,0.00
2019-04-20T03:40:08.340Z,0.00
2019-04-20T03:41:08.178Z,0.00
2019-04-20T03:41:57.037Z,0.00
2019-04-20T03:42:55.285Z,0.00
2019-04-20T03:44:01.030Z,0.00
2019-04-20T03:45:00.562Z,0.00
2019-04-20T03:46:01.500Z,0.00
2019-04-20T03:46:59.782Z,0.00
2019-04-20T03:48:06.067Z,0.00
2019-04-20T03:49:09.529Z,0.00
2019-04-20T03:50:18.554Z,0.00
2019-04-20T03:51:17.057Z,0.00
2019-04-20T03:52:14.625Z,0.00
2019-04-20T03:53:12.876Z,0.00
2019-04-20T03:54:12.157Z,0.00
2019-04-20T03:55:13.935Z,5.63
2019-04-20T03:56:19.477Z,5.63
2019-04-20T03:57:19.697Z,5.63
2019-04-20T03:58:14.047Z,5.63
2019-04-20T03:59:09.091Z,5.63
2019-04-20T04:00:13.143Z,5.63
2019-04-20T04:01:13.346Z,5.63
2019-04-20T04:02:37.480Z,5.63
2019-04-20T04:03:20.265Z,11.25
2019-04-20T04:04:17.902Z,11.25
2019-04-20T04:05:12.546Z,11.25
2019-04-20T04:06:08.071Z,11.25
2019-04-20T04:06:57.719Z,11.25
2019-04-20T04:09:02.374Z,16.88
2019-04-20T04:10:09.801Z,16.88
2019-04-20T04:11:12.450Z,16.88
2019-04-20T04:12:06.515Z,16.88
2019-04-20T04:12:53.075Z,22.50
2019-04-20T04:13:52.527Z,22.50
2019-04-20T04:14:51.954Z,28.13
2019-04-20T04:15:57.806Z,28.13
2019-04-20T04:16:57.028Z,28.13
2019-04-20T04:17:52.984Z,33.75
2019-04-20T04:19:01.501Z,33.75
2019-04-20T04:19:57.683Z,39.38
2019-04-20T04:20:59.089Z,39.38
2019-04-20T04:22:05.014Z,45.00
2019-04-20T04:23:10.510Z,50.63
2019-04-20T04:24:07.310Z,50.63
2019-04-20T04:25:05.264Z,50.63
2019-04-20T04:26:10.101Z,56.25
2019-04-20T04:27:02.182Z,56.25
2019-04-20T04:28:09.815Z,61.88
2019-04-20T04:29:13.730Z,61.88
2019-04-20T04:30:07.732Z,67.50
2019-04-20T04:31:04.212Z,73.13
2019-04-20T04:32:10.463Z,73.13
2019-04-20T04:33:36.110Z,78.75
2019-04-20T04:34:07.885Z,84.38
2019-04-20T04:35:05.518Z,84.38
2019-04-20T04:36:05.846Z,90.00
2019-04-20T04:37:13.126Z,95.63
2019-04-20T04:38:06.672Z,95.63
2019-04-20T04:39:11.481Z,95.63
2019-04-20T04:40:20.740Z,101.25
2019-04-20T04:41:17.041Z,101.25
2019-04-20T04:42:16.687Z,106.88
2019-04-20T04:43:10.283Z,112.50
2019-04-20T04:44:04.533Z,118.13
2019-04-20T04:44:56.474Z,118.13
2019-04-20T04:45:48.893Z,123.75
2019-04-20T04:46:54.741Z,129.38
2019-04-20T04:47:49.471Z,129.38
2019-04-20T04:48:51.612Z,135.00
2019-04-20T04:49:56.206Z,140.63
2019-04-20T04:50:57.400Z,140.63
2019-04-20T04:51:56.835Z,146.25
2019-04-20T04:52:57.298Z,151.88
2019-04-20T04:53:55.176Z,151.88
2019-04-20T04:54:58.763Z,157.50
2019-04-20T04:55:54.843Z,163.13
2019-04-20T04:56:48.386Z,163.13
2019-04-20T04:57:47.523Z,168.75
2019-04-20T04:58:47.416Z,168.75
2019-04-20T04:59:48.629Z,174.38
2019-04-20T05:00:48.856Z,174.38
2019-04-20T05:01:51.438Z,180.00
2019-04-20T05:02:53.845Z,185.63
2019-04-20T05:04:14.733Z,185.63
2019-04-20T05:05:12.918Z,191.25
2019-04-20T05:06:07.569Z,196.88
2019-04-20T05:06:58.412Z,202.50
2019-04-20T05:07:58.372Z,208.13
2019-04-20T05:08:51.466Z,208.13
2019-04-20T05:09:46.554Z,213.75
2019-04-20T05:10:46.201Z,219.38
2019-04-20T05:11:49.698Z,225.00
2019-04-20T05:12:46.108Z,230.63
2019-04-20T05:13:54.174Z,230.63
2019-04-20T05:14:55.865Z,236.25
2019-04-20T05:15:58.328Z,241.88
2019-04-20T05:17:01.862Z,247.50
2019-04-20T05:18:06.204Z,253.13
2019-04-20T05:19:09.429Z,253.13
2019-04-20T05:20:02.517Z,253.13
2019-04-20T05:21:04.435Z,258.75
2019-04-20T05:22:11.090Z,264.38
2019-04-20T05:23:02.361Z,270.00
2019-04-20T05:24:06.255Z,275.63
2019-04-20T05:25:04.693Z,281.25
2019-04-20T05:26:10.073Z,286.88
2019-04-20T05:27:07.268Z,292.50
2019-04-20T05:28:04.102Z,303.75
2019-04-20T05:28:53.524Z,309.38
2019-04-20T05:29:44.728Z,315.00
2019-04-20T05:30:48.657Z,326.25
2019-04-20T05:31:53.162Z,337.50
2019-04-20T05:32:52.848Z,343.13
2019-04-20T05:34:10.870Z,360.00
2019-04-20T05:35:09.662Z,371.25
2019-04-20T05:36:03.106Z,382.50
2019-04-20T05:37:11.068Z,393.75
2019-04-20T05:38:06.662Z,405.00
2019-04-20T05:39:11.676Z,416.25
2019-04-20T05:40:04.966Z,433.13
2019-04-20T05:41:04.643Z,444.38
2019-04-20T05:42:03.372Z,455.63
2019-04-20T05:42:59.171Z,455.63
2019-04-20T05:44:00.385Z,466.88
2019-04-20T05:45:01.892Z,478.13
2019-04-20T05:45:58.699Z,483.75
2019-04-20T05:47:06.452Z,489.38
2019-04-20T05:47:58.959Z,483.75
2019-04-20T05:49:04.549Z,483.75
2019-04-20T05:49:56.961Z,478.13
2019-04-20T05:52:10.507Z,506.25
2019-04-20T05:53:09.931Z,534.38
2019-04-20T05:54:05.705Z,562.50
2019-04-20T05:55:04.185Z,540.00
2019-04-20T05:55:59.641Z,511.88
2019-04-20T05:57:05.184Z,506.25
2019-04-20T05:58:02.089Z,500.63
2019-04-20T05:59:00.460Z,506.25
2019-04-20T06:00:21.502Z,506.25
2019-04-20T06:02:03.805Z,511.88
2019-04-20T06:03:02.356Z,523.13
2019-04-20T06:03:57.882Z,534.38
2019-04-20T06:05:04.367Z,545.63
2019-04-20T06:06:05.169Z,562.50
2019-04-20T06:06:59.750Z,556.88
2019-04-20T06:08:00.738Z,545.63
2019-04-20T06:09:05.531Z,551.25
2019-04-20T06:10:06.586Z,556.88
2019-04-20T06:11:03.841Z,500.63
2019-04-20T06:12:09.685Z,545.63
2019-04-20T06:12:57.810Z,573.75
2019-04-20T06:13:50.587Z,585.00
2019-04-20T06:14:58.485Z,596.25
2019-04-20T06:15:57.435Z,601.88
2019-04-20T06:17:04.773Z,613.13
2019-04-20T06:17:58.391Z,618.75
2019-04-20T06:19:06.601Z,624.38
2019-04-20T06:20:02.380Z,635.63
2019-04-20T06:21:02.409Z,641.25
2019-04-20T06:22:05.432Z,652.50
2019-04-20T06:23:09.785Z,658.13
2019-04-20T06:24:06.525Z,669.38
2019-04-20T06:25:10.052Z,675.00
2019-04-20T06:26:15.907Z,680.63
2019-04-20T06:27:04.992Z,691.88
2019-04-20T06:27:56.927Z,703.13
2019-04-20T06:28:50.825Z,731.25
2019-04-20T06:29:56.903Z,776.25
2019-04-20T06:30:52.866Z,821.25
2019-04-20T06:31:57.467Z,1051.88
2019-04-20T06:33:06.289Z,1310.63
2019-04-20T06:35:00.535Z,1293.75
2019-04-20T06:36:59.032Z,1372.50
2019-04-20T06:38:08.516Z,1321.88
2019-04-20T06:39:02.656Z,1355.63
2019-04-20T06:40:07.805Z,1366.88
2019-04-20T06:41:06.372Z,1383.75
2019-04-20T06:42:59.661Z,1411.88
2019-04-20T06:44:00.636Z,1434.38
2019-04-20T06:44:57.562Z,1456.88
2019-04-20T06:46:04.377Z,1479.38
2019-04-20T06:47:04.122Z,1479.38
2019-04-20T06:47:59.940Z,1496.25
2019-04-20T06:49:04.110Z,1496.25
2019-04-20T06:49:56.785Z,1535.63
2019-04-20T06:50:53.874Z,1530.00
2019-04-20T06:51:58.693Z,1586.25
2019-04-20T06:52:55.655Z,1625.63
2019-04-20T06:53:51.077Z,1636.88
2019-04-20T06:54:53.769Z,1670.63
2019-04-20T06:55:57.360Z,1704.38
2019-04-20T06:56:54.550Z,1732.50
2019-04-20T06:57:56.271Z,1726.88
2019-04-20T06:59:00.088Z,1732.50
2019-04-20T07:00:05.721Z,1721.25
2019-04-20T07:00:58.631Z,1766.25
2019-04-20T07:02:02.887Z,1766.25
2019-04-20T07:02:56.370Z,1766.25
2019-04-20T07:04:18.730Z,1811.25
2019-04-20T07:05:05.658Z,1828.13
2019-04-20T07:06:06.171Z,1743.75
2019-04-20T07:07:05.315Z,1901.25
2019-04-20T07:08:07.028Z,1895.63
2019-04-20T07:09:00.767Z,1895.63
2019-04-20T07:10:12.101Z,1957.50
2019-04-20T07:11:02.259Z,1918.13
2019-04-20T07:11:50.386Z,1856.25
2019-04-20T07:12:49.528Z,1923.75
2019-04-20T07:13:44.476Z,1929.38
2019-04-20T07:14:48.802Z,2013.75
2019-04-20T07:15:49.583Z,2019.38
2019-04-20T07:16:55.734Z,2008.13
2019-04-20T07:17:57.047Z,1777.50
2019-04-20T07:18:57.661Z,1215.00
2019-04-20T07:19:50.088Z,652.50
2019-04-20T07:23:09.748Z,337.50
2019-04-20T07:24:09.374Z,326.25
2019-04-20T07:24:56.645Z,320.63
2019-04-20T07:26:00.067Z,320.63
2019-04-20T07:26:49.296Z,320.63
2019-04-20T07:27:55.258Z,315.00
2019-04-20T07:29:05.418Z,315.00
2019-04-20T07:30:00.213Z,315.00
2019-04-20T07:31:49.894Z,315.00
2019-04-20T07:33:00.728Z,315.00
2019-04-20T07:33:56.764Z,315.00
2019-04-20T07:35:50.548Z,315.00
2019-04-20T07:36:57.421Z,320.63
2019-04-20T07:38:57.473Z,320.63
2019-04-20T07:39:53.915Z,320.63
2019-04-20T07:40:50.359Z,320.63
2019-04-20T07:41:54.660Z,320.63
2019-04-20T07:44:04.681Z,320.63
2019-04-20T07:44:56.641Z,326.25
2019-04-20T07:45:50.238Z,326.25
2019-04-20T07:49:49.824Z,326.25
2019-04-20T07:50:46.280Z,331.88
2019-04-20T07:51:35.480Z,331.88
2019-04-20T07:52:43.196Z,331.88
2019-04-20T07:53:50.191Z,337.50
2019-04-20T07:55:12.495Z,337.50
2019-04-20T07:55:53.981Z,337.50
2019-04-20T07:56:52.174Z,337.50
2019-04-20T07:57:45.756Z,337.50
2019-04-20T07:58:39.018Z,343.13
2019-04-20T07:59:50.201Z,343.13
2019-04-20T08:01:02.596Z,348.75
2019-04-20T08:02:05.915Z,348.75
2019-04-20T08:02:57.386Z,354.38
2019-04-20T08:03:50.159Z,354.38
2019-04-20T08:04:47.362Z,360.00
2019-04-20T08:05:41.866Z,360.00
2019-04-20T08:06:38.049Z,365.63
2019-04-20T08:07:39.217Z,365.63
2019-04-20T08:08:43.790Z,371.25
2019-04-20T08:09:39.949Z,365.63
2019-04-20T08:10:45.197Z,365.63
2019-04-20T08:12:55.572Z,360.00
2019-04-20T08:13:51.474Z,360.00
2019-04-20T08:14:56.869Z,365.63
2019-04-20T08:15:51.213Z,365.63
2019-04-20T08:17:05.368Z,365.63
2019-04-20T08:17:52.547Z,376.88
2019-04-20T08:18:52.613Z,371.25
2019-04-20T08:19:45.410Z,371.25
2019-04-20T08:20:46.214Z,371.25
2019-04-20T08:21:47.284Z,376.88
2019-04-20T08:22:47.476Z,376.88
2019-04-20T08:24:02.477Z,376.88
2019-04-20T08:24:45.613Z,382.50
2019-04-20T08:25:39.889Z,382.50
2019-04-20T08:26:36.036Z,388.13
2019-04-20T08:27:27.640Z,399.38
2019-04-20T08:28:37.181Z,393.75
2019-04-20T08:29:42.398Z,393.75
2019-04-20T08:30:43.229Z,399.38
2019-04-20T08:31:41.683Z,393.75
2019-04-20T08:32:41.217Z,393.75
2019-04-20T08:33:58.447Z,393.75
2019-04-20T08:34:53.725Z,393.75
2019-04-20T08:35:53.940Z,399.38
2019-04-20T08:36:45.455Z,399.38
2019-04-20T08:37:59.619Z,399.38
2019-04-20T08:39:06.668Z,405.00
2019-04-20T08:40:50.311Z,410.63
2019-04-20T08:41:50.114Z,416.25
2019-04-20T08:43:00.018Z,416.25
2019-04-20T08:45:48.768Z,427.50
2019-04-20T08:46:53.655Z,433.13
2019-04-20T08:47:54.890Z,433.13
2019-04-20T08:48:47.942Z,438.75
2019-04-20T08:49:50.140Z,438.75
2019-04-20T08:50:45.131Z,444.38
2019-04-20T08:51:50.088Z,450.00
2019-04-20T08:53:49.232Z,461.25
2019-04-20T08:54:37.884Z,472.50
2019-04-20T08:55:41.366Z,495.00
2019-04-20T08:56:34.907Z,500.63
2019-04-20T08:57:24.759Z,523.13
2019-04-20T08:58:24.824Z,585.00
2019-04-20T08:59:25.367Z,686.25
2019-04-20T09:00:29.725Z,838.13
2019-04-20T09:01:28.243Z,1192.50
2019-04-20T09:02:24.023Z,2030.63
2019-04-20T09:03:30.235Z,2823.75
2019-04-20T09:04:33.758Z,2896.88
2019-04-20T09:05:37.223Z,2913.75
2019-04-20T09:06:36.301Z,2733.75
2019-04-20T09:07:26.773Z,2390.63
2019-04-20T09:08:29.546Z,1833.75
2019-04-20T09:09:49.158Z,1243.13
2019-04-20T09:10:46.811Z,810.00
2019-04-20T09:11:48.135Z,585.00
2019-04-20T09:12:40.520Z,523.13
2019-04-20T09:13:32.016Z,500.63
2019-04-20T09:14:23.629Z,495.00
2019-04-20T09:15:23.378Z,495.00
2019-04-20T09:16:32.350Z,489.38
2019-04-20T09:17:29.327Z,489.38
2019-04-20T09:18:30.345Z,489.38
2019-04-20T09:19:32.477Z,495.00
2019-04-20T09:20:31.869Z,500.63
2019-04-20T09:21:33.082Z,495.00
2019-04-20T09:22:34.230Z,500.63
2019-04-20T09:23:38.094Z,506.25
2019-04-20T09:24:49.093Z,511.88
2019-04-20T09:26:37.059Z,832.50
2019-04-20T09:27:32.551Z,1040.63
2019-04-20T09:28:28.625Z,843.75
2019-04-20T09:29:32.940Z,905.63
2019-04-20T09:30:34.861Z,2036.25
2019-04-20T09:31:36.930Z,3448.13
2019-04-20T09:32:35.996Z,3476.25
2019-04-20T09:33:35.996Z,3673.13
2019-04-20T09:34:42.568Z,3706.88
2019-04-20T09:35:39.005Z,3802.50
2019-04-20T09:36:32.510Z,3819.38
2019-04-20T09:37:41.213Z,3403.13
2019-04-20T09:38:38.875Z,3375.00
2019-04-20T09:39:31.614Z,2908.13
2019-04-20T09:40:35.305Z,3037.50
2019-04-20T09:41:40.648Z,2548.13
2019-04-20T09:42:20.137Z,2272.50
2019-04-20T09:43:20.130Z,2671.88
2019-04-20T09:44:20.050Z,2272.50
2019-04-20T09:45:27.785Z,2401.88
2019-04-20T09:46:19.990Z,2823.75
2019-04-20T09:47:28.340Z,2621.25
2019-04-20T09:48:31.226Z,2806.88
2019-04-20T09:49:33.142Z,2846.25
2019-04-20T09:50:32.519Z,2812.50
2019-04-20T09:51:38.871Z,2846.25
2019-04-20T09:52:31.268Z,3043.13
2019-04-20T09:53:31.644Z,3133.13
2019-04-20T09:54:36.076Z,3453.75
2019-04-20T09:55:32.425Z,3301.88
2019-04-20T09:56:33.360Z,2986.88
2019-04-20T09:57:40.499Z,3020.63
2019-04-20T09:58:30.882Z,3493.13
2019-04-20T09:59:39.994Z,3639.38
2019-04-20T10:00:35.907Z,3774.38
2019-04-20T10:01:29.028Z,3948.75
2019-04-20T10:02:24.170Z,3898.13
2019-04-20T10:03:18.467Z,4005.00
2019-04-20T10:04:19.508Z,4044.38
2019-04-20T10:05:18.096Z,4145.63
2019-04-20T10:06:23.034Z,4230.00
2019-04-20T10:07:21.399Z,4168.13
2019-04-20T10:08:17.778Z,3954.38
2019-04-20T10:09:20.413Z,3909.38
2019-04-20T10:10:27.906Z,3819.38
2019-04-20T10:11:17.518Z,3836.25
2019-04-20T10:12:17.615Z,3903.75
2019-04-20T10:13:17.454Z,3701.25
2019-04-20T10:14:17.258Z,3605.63
2019-04-20T10:15:20.973Z,3616.88
2019-04-20T10:16:17.724Z,3645.00
2019-04-20T10:17:18.009Z,3566.25
2019-04-20T10:18:17.480Z,3172.50
2019-04-20T10:19:20.579Z,3898.13
2019-04-20T10:20:24.444Z,3673.13
2019-04-20T10:21:17.961Z,3605.63
2019-04-20T10:22:16.573Z,3538.13
2019-04-20T10:23:16.537Z,3555.00
2019-04-20T10:24:16.683Z,3571.88
2019-04-20T10:25:16.315Z,3813.75
2019-04-20T10:26:16.420Z,3780.00
2019-04-20T10:27:16.762Z,3701.25
2019-04-20T10:28:16.075Z,3740.63
2019-04-20T10:29:17.363Z,3847.50
2019-04-20T10:30:16.663Z,3628.13
2019-04-20T10:31:16.699Z,3532.50
2019-04-20T10:32:16.068Z,3116.25
2019-04-20T10:33:15.639Z,2643.75
2019-04-20T10:34:15.827Z,2261.25
2019-04-20T10:35:18.305Z,2081.25
2019-04-20T10:36:15.389Z,1884.38
2019-04-20T10:37:15.626Z,1901.25
2019-04-20T10:38:15.703Z,1935.00
2019-04-20T10:39:16.237Z,1873.13
2019-04-20T10:40:31.610Z,2002.50
2019-04-20T10:41:28.433Z,2379.38
2019-04-20T10:42:16.213Z,2604.38
2019-04-20T10:43:16.206Z,2671.88
2019-04-20T10:44:14.773Z,2362.50
2019-04-20T10:45:14.970Z,2700.00
2019-04-20T10:46:15.085Z,2581.88
2019-04-20T10:47:14.741Z,2306.25
2019-04-20T10:48:15.129Z,1968.75
2019-04-20T10:49:15.317Z,2053.13
2019-04-20T10:50:14.207Z,1867.50
2019-04-20T10:51:14.095Z,1715.63
2019-04-20T10:52:14.040Z,1771.88
2019-04-20T10:53:14.095Z,1490.63
2019-04-20T10:54:14.215Z,1119.38
2019-04-20T10:55:14.719Z,1243.13
2019-04-20T10:56:13.676Z,1018.13
2019-04-20T10:57:13.565Z,725.63
2019-04-20T10:58:13.648Z,641.25
2019-04-20T10:59:13.878Z,618.75
2019-04-20T11:00:13.573Z,579.38
2019-04-20T11:01:13.567Z,551.25
2019-04-20T11:02:14.005Z,483.75
2019-04-20T11:03:13.559Z,433.13
2019-04-20T11:04:12.941Z,399.38
2019-04-20T11:05:12.892Z,365.63
2019-04-20T11:06:12.758Z,360.00
2019-04-20T11:07:12.669Z,348.75
2019-04-20T11:08:12.732Z,337.50
2019-04-20T11:09:12.489Z,331.88
2019-04-20T11:10:19.872Z,331.88
2019-04-20T11:11:19.087Z,331.88
2019-04-20T11:12:12.498Z,326.25
2019-04-20T11:13:12.123Z,326.25
2019-04-20T11:14:17.933Z,326.25
2019-04-20T11:15:12.508Z,326.25
2019-04-20T11:16:12.614Z,326.25
2019-04-20T11:17:12.272Z,326.25
2019-04-20T11:18:11.665Z,326.25
2019-04-20T11:19:11.681Z,326.25
2019-04-20T11:20:11.477Z,326.25
2019-04-20T11:21:11.522Z,326.25
2019-04-20T11:22:12.485Z,326.25
2019-04-20T11:23:11.200Z,337.50
2019-04-20T11:24:12.137Z,354.38
2019-04-20T11:25:12.326Z,365.63
2019-04-20T11:26:10.925Z,371.25
2019-04-20T11:27:11.994Z,388.13
2019-04-20T11:28:10.736Z,399.38
2019-04-20T11:29:10.644Z,410.63
2019-04-20T11:30:11.920Z,421.88
2019-04-20T11:31:10.457Z,433.13
2019-04-20T11:32:12.348Z,444.38
2019-04-20T11:33:10.267Z,444.38
2019-04-20T11:34:10.375Z,438.75
2019-04-20T11:35:19.973Z,427.50
2019-04-20T11:36:09.990Z,405.00
2019-04-20T11:37:11.016Z,376.88
2019-04-20T11:38:13.347Z,360.00
2019-04-20T11:39:11.148Z,360.00
2019-04-20T11:40:10.805Z,360.00
2019-04-20T11:41:17.735Z,348.75
2019-04-20T11:42:09.975Z,337.50
2019-04-20T11:43:09.334Z,315.00
2019-04-20T11:44:09.587Z,315.00
2019-04-20T11:45:09.145Z,309.38
2019-04-20T11:46:09.118Z,303.75
2019-04-20T11:47:08.961Z,309.38
2019-04-20T11:48:09.581Z,315.00
2019-04-20T11:49:09.675Z,303.75
2019-04-20T11:50:09.421Z,286.88
2019-04-20T11:51:09.496Z,275.63
2019-04-20T11:52:09.690Z,270.00
2019-04-20T11:53:09.072Z,258.75
2019-04-20T11:54:08.358Z,253.13
2019-04-20T11:55:08.508Z,253.13
2019-04-20T11:56:17.563Z,258.75
2019-04-20T11:57:08.965Z,258.75
2019-04-20T11:58:08.087Z,258.75
2019-04-20T11:59:09.312Z,264.38
2019-04-20T12:00:08.752Z,258.75
2019-04-20T12:01:11.044Z,258.75
2019-04-20T12:02:08.316Z,264.38
2019-04-20T12:03:15.877Z,264.38
2019-04-20T12:04:18.739Z,264.38
2019-04-20T12:05:20.123Z,264.38
2019-04-20T12:06:08.602Z,264.38
2019-04-20T12:07:07.074Z,264.38
2019-04-20T12:08:07.121Z,270.00
2019-04-20T12:09:07.338Z,264.38
2019-04-20T12:10:12.065Z,264.38
2019-04-20T12:11:22.735Z,258.75
2019-04-20T12:12:17.872Z,258.75
2019-04-20T12:13:07.793Z,253.13
2019-04-20T12:14:06.961Z,247.50
2019-04-20T12:15:06.503Z,253.13
2019-04-20T12:16:07.604Z,253.13
2019-04-20T12:17:06.125Z,253.13
2019-04-20T12:18:07.345Z,253.13
2019-04-20T12:19:06.400Z,253.13
2019-04-20T12:20:05.985Z,253.13
2019-04-20T12:21:05.749Z,258.75
2019-04-20T12:22:05.707Z,258.75
2019-04-20T12:23:06.451Z,258.75
2019-04-20T12:24:06.615Z,264.38
2019-04-20T12:25:05.924Z,264.38
2019-04-20T12:26:06.502Z,270.00
2019-04-20T12:27:05.181Z,270.00
2019-04-20T12:28:05.363Z,275.63
2019-04-20T12:29:05.700Z,275.63
2019-04-20T12:30:05.824Z,275.63
2019-04-20T12:31:11.912Z,281.25
2019-04-20T12:32:06.905Z,286.88
2019-04-20T12:33:05.811Z,292.50
2019-04-20T12:34:04.592Z,292.50
2019-04-20T12:35:04.427Z,292.50
2019-04-20T12:36:04.327Z,292.50
2019-04-20T12:37:05.023Z,292.50
2019-04-20T12:38:05.153Z,292.50
2019-04-20T12:39:04.047Z,292.50
2019-04-20T12:40:04.943Z,292.50
2019-04-20T12:41:05.756Z,298.13
2019-04-20T12:42:07.543Z,309.38
2019-04-20T12:43:04.677Z,309.38
2019-04-20T12:44:03.882Z,309.38
2019-04-20T12:45:03.922Z,315.00
2019-04-20T12:46:03.381Z,320.63
2019-04-20T12:47:03.685Z,331.88
2019-04-20T12:48:03.952Z,331.88
2019-04-20T12:49:03.099Z,337.50
2019-04-20T12:50:03.497Z,348.75
2019-04-20T12:51:03.790Z,360.00
2019-04-20T12:52:05.151Z,354.38
2019-04-20T12:53:02.723Z,348.75
2019-04-20T12:54:02.689Z,348.75
2019-04-20T12:55:04.630Z,343.13
2019-04-20T12:56:02.449Z,343.13
2019-04-20T12:57:02.622Z,343.13
2019-04-20T12:58:02.847Z,337.50
2019-04-20T12:59:03.232Z,326.25
2019-04-20T13:00:03.466Z,320.63
2019-04-20T13:01:02.583Z,309.38
2019-04-20T13:02:01.883Z,303.75
2019-04-20T13:03:03.255Z,292.50
2019-04-20T13:04:04.482Z,286.88
2019-04-20T13:05:01.701Z,286.88
2019-04-20T13:06:01.853Z,281.25
2019-04-20T13:07:01.769Z,275.63
2019-04-20T13:08:02.952Z,275.63
2019-04-20T13:09:02.478Z,275.63
2019-04-20T13:10:03.590Z,281.25